QAK033 MUHA-MKJP
Flight info
| Callsign | QAK033 |
|---|---|
| Flight time | 1h 16m |
| Altitude | 23000 |
| Route | KAVUL6A UCL G442 SIA R640 KEMBO KEYNO3 |
| Aircraft | A320/M-SDE3FGHIRWY/LB1 |
Departure
| Time | 2026-05-05 18:18 |
|---|---|
| Airport | José Martí International Airport (MUHA) |
Arrival
| Time | 2026-05-05 19:35 |
|---|---|
| Airport | Norman Manley International Airport (MKJP) |
| Time | Latitude | Longitude | Altitude | Speed | Heading |
|---|---|---|---|---|---|
| 2026-05-05 17:53 | 22.99616 | -82.40699 | 217 ft | 0 kts | 30° |
| 2026-05-05 18:08 | 22.99608 | -82.40704 | 216 ft | 4 kts | 31° |
| 2026-05-05 18:08 | 22.99586 | -82.40721 | 223 ft | 4 kts | 42° |
| 2026-05-05 18:09 | 22.99569 | -82.40742 | 217 ft | 4 kts | 79° |
| 2026-05-05 18:09 | 22.99571 | -82.40758 | 219 ft | 0 kts | 145° |
| 2026-05-05 18:12 | 22.99567 | -82.40755 | 218 ft | 2 kts | 145° |
| 2026-05-05 18:12 | 22.99544 | -82.40737 | 216 ft | 8 kts | 145° |
| 2026-05-05 18:12 | 22.99486 | -82.40697 | 216 ft | 7 kts | 159° |
| 2026-05-05 18:12 | 22.99443 | -82.40735 | 216 ft | 12 kts | 236° |
| 2026-05-05 18:13 | 22.99383 | -82.40827 | 216 ft | 11 kts | 232° |
| 2026-05-05 18:13 | 22.99331 | -82.40835 | 221 ft | 10 kts | 152° |
| 2026-05-05 18:13 | 22.99251 | -82.40778 | 216 ft | 12 kts | 150° |
| 2026-05-05 18:13 | 22.99184 | -82.40819 | 217 ft | 16 kts | 236° |
| 2026-05-05 18:14 | 22.99103 | -82.40942 | 218 ft | 24 kts | 234° |
| 2026-05-05 18:14 | 22.99003 | -82.41094 | 220 ft | 25 kts | 234° |
| 2026-05-05 18:14 | 22.98896 | -82.41254 | 217 ft | 27 kts | 234° |
| 2026-05-05 18:14 | 22.98785 | -82.41423 | 219 ft | 28 kts | 233° |
| 2026-05-05 18:15 | 22.98668 | -82.41600 | 218 ft | 29 kts | 234° |
| 2026-05-05 18:15 | 22.98545 | -82.41785 | 218 ft | 31 kts | 234° |
| 2026-05-05 18:15 | 22.98420 | -82.41974 | 216 ft | 32 kts | 234° |
| 2026-05-05 18:15 | 22.98290 | -82.42170 | 216 ft | 32 kts | 234° |
| 2026-05-05 18:16 | 22.98173 | -82.42348 | 222 ft | 29 kts | 234° |
| 2026-05-05 18:16 | 22.98059 | -82.42516 | 220 ft | 20 kts | 234° |
| 2026-05-05 18:16 | 22.97982 | -82.42564 | 219 ft | 12 kts | 165° |
| 2026-05-05 18:16 | 22.97917 | -82.42517 | 216 ft | 11 kts | 143° |
| 2026-05-05 18:17 | 22.97887 | -82.42467 | 216 ft | 7 kts | 85° |
| 2026-05-05 18:17 | 22.97936 | -82.42381 | 221 ft | 38 kts | 54° |
| 2026-05-05 18:17 | 22.98241 | -82.41923 | 221 ft | 108 kts | 54° |
| 2026-05-05 18:17 | 22.98793 | -82.41091 | 218 ft | 161 kts | 54° |
| 2026-05-05 18:18 | 22.99490 | -82.40045 | 672 ft | 172 kts | 53° |
| 2026-05-05 18:18 | 23.00167 | -82.39020 | 1474 ft | 168 kts | 51° |
| 2026-05-05 18:18 | 23.00848 | -82.37982 | 2103 ft | 174 kts | 55° |
| 2026-05-05 18:18 | 23.01327 | -82.36679 | 2451 ft | 198 kts | 74° |
| 2026-05-05 18:19 | 23.01615 | -82.35119 | 2732 ft | 222 kts | 81° |
| 2026-05-05 18:19 | 23.01494 | -82.33363 | 3010 ft | 247 kts | 111° |
| 2026-05-05 18:19 | 23.00447 | -82.31842 | 3446 ft | 265 kts | 147° |
| 2026-05-05 18:19 | 22.98797 | -82.30866 | 4184 ft | 273 kts | 154° |
| 2026-05-05 18:20 | 22.97101 | -82.29918 | 5069 ft | 276 kts | 154° |
| 2026-05-05 18:20 | 22.95381 | -82.28945 | 5936 ft | 280 kts | 154° |
| 2026-05-05 18:20 | 22.93640 | -82.27956 | 6783 ft | 284 kts | 154° |
| 2026-05-05 18:20 | 22.91891 | -82.26963 | 7568 ft | 288 kts | 154° |
| 2026-05-05 18:21 | 22.90103 | -82.25949 | 8353 ft | 292 kts | 154° |
| 2026-05-05 18:21 | 22.88299 | -82.24928 | 9150 ft | 296 kts | 154° |
| 2026-05-05 18:21 | 22.86456 | -82.23887 | 9943 ft | 300 kts | 154° |
| 2026-05-05 18:21 | 22.84559 | -82.22814 | 10367 ft | 317 kts | 154° |
| 2026-05-05 18:22 | 22.82526 | -82.21667 | 10553 ft | 341 kts | 154° |
| 2026-05-05 18:22 | 22.80351 | -82.20439 | 10884 ft | 357 kts | 154° |
| 2026-05-05 18:22 | 22.78151 | -82.19192 | 11488 ft | 362 kts | 154° |
| 2026-05-05 18:22 | 22.75899 | -82.17914 | 12139 ft | 367 kts | 154° |
| 2026-05-05 18:23 | 22.73626 | -82.16624 | 12805 ft | 370 kts | 154° |
| 2026-05-05 18:23 | 22.71327 | -82.15324 | 13450 ft | 374 kts | 154° |
| 2026-05-05 18:23 | 22.69007 | -82.14012 | 14049 ft | 378 kts | 154° |
| 2026-05-05 18:23 | 22.66654 | -82.12684 | 14579 ft | 383 kts | 154° |
| 2026-05-05 18:24 | 22.64295 | -82.11352 | 15068 ft | 388 kts | 154° |
| 2026-05-05 18:24 | 22.61876 | -82.09988 | 15553 ft | 394 kts | 153° |
| 2026-05-05 18:24 | 22.59416 | -82.08602 | 16039 ft | 399 kts | 153° |
| 2026-05-05 18:24 | 22.56962 | -82.07218 | 16520 ft | 404 kts | 153° |
| 2026-05-05 18:25 | 22.54449 | -82.05800 | 16986 ft | 409 kts | 153° |
| 2026-05-05 18:25 | 22.53590 | -82.05315 | 17147 ft | 411 kts | 153° |
| 2026-05-05 18:25 | 22.49328 | -82.02916 | 17930 ft | 419 kts | 153° |
| 2026-05-05 18:25 | 22.46713 | -82.01446 | 18380 ft | 424 kts | 153° |
| 2026-05-05 18:26 | 22.44114 | -81.99981 | 18800 ft | 428 kts | 153° |
| 2026-05-05 18:26 | 22.41462 | -81.98487 | 19257 ft | 431 kts | 153° |
| 2026-05-05 18:26 | 22.38785 | -81.96983 | 19730 ft | 434 kts | 154° |
| 2026-05-05 18:26 | 22.36096 | -81.95475 | 20205 ft | 436 kts | 154° |
| 2026-05-05 18:27 | 22.33389 | -81.93956 | 20670 ft | 439 kts | 154° |
| 2026-05-05 18:27 | 22.30665 | -81.92425 | 21123 ft | 442 kts | 154° |
| 2026-05-05 18:27 | 22.27952 | -81.90901 | 21568 ft | 445 kts | 154° |
| 2026-05-05 18:27 | 22.25188 | -81.89349 | 22017 ft | 447 kts | 154° |
| 2026-05-05 18:28 | 22.19659 | -81.86250 | 22850 ft | 453 kts | 155° |
| 2026-05-05 18:28 | 22.16852 | -81.84675 | 23252 ft | 455 kts | 155° |
| 2026-05-05 18:28 | 22.14018 | -81.83090 | 23644 ft | 458 kts | 155° |
| 2026-05-05 18:29 | 22.12135 | -81.82039 | 23860 ft | 459 kts | 155° |
| 2026-05-05 18:29 | 22.08351 | -81.79927 | 24296 ft | 462 kts | 155° |
| 2026-05-05 18:29 | 22.06444 | -81.78863 | 24510 ft | 463 kts | 155° |
| 2026-05-05 18:29 | 22.02594 | -81.76713 | 24930 ft | 466 kts | 155° |
| 2026-05-05 18:30 | 21.99740 | -81.75120 | 25237 ft | 468 kts | 155° |
| 2026-05-05 18:30 | 21.97813 | -81.74044 | 25440 ft | 470 kts | 154° |
| 2026-05-05 18:30 | 21.94901 | -81.72417 | 25744 ft | 472 kts | 154° |
| 2026-05-05 18:30 | 21.91976 | -81.70784 | 26035 ft | 474 kts | 154° |
| 2026-05-05 18:31 | 21.89032 | -81.69143 | 26331 ft | 476 kts | 154° |
| 2026-05-05 18:31 | 21.86075 | -81.67497 | 26627 ft | 478 kts | 154° |
| 2026-05-05 18:31 | 21.83140 | -81.65865 | 26913 ft | 480 kts | 154° |
| 2026-05-05 18:31 | 21.80156 | -81.64206 | 27191 ft | 483 kts | 154° |
| 2026-05-05 18:32 | 21.77162 | -81.62540 | 27473 ft | 485 kts | 154° |
| 2026-05-05 18:32 | 21.74152 | -81.60864 | 27748 ft | 487 kts | 154° |
| 2026-05-05 18:32 | 21.71166 | -81.59202 | 28007 ft | 489 kts | 154° |
| 2026-05-05 18:32 | 21.68127 | -81.57510 | 28275 ft | 491 kts | 154° |
| 2026-05-05 18:33 | 21.65084 | -81.55816 | 28527 ft | 493 kts | 154° |
| 2026-05-05 18:33 | 21.62127 | -81.54009 | 28768 ft | 496 kts | 147° |
| 2026-05-05 18:33 | 21.59382 | -81.51730 | 29011 ft | 498 kts | 137° |
| 2026-05-05 18:33 | 21.56956 | -81.49041 | 29237 ft | 500 kts | 131° |
| 2026-05-05 18:34 | 21.54646 | -81.46265 | 29467 ft | 502 kts | 131° |
| 2026-05-05 18:34 | 21.52307 | -81.43464 | 29695 ft | 504 kts | 131° |
| 2026-05-05 18:34 | 21.49944 | -81.40641 | 29916 ft | 505 kts | 131° |
| 2026-05-05 18:34 | 21.47601 | -81.37854 | 30127 ft | 506 kts | 131° |
| 2026-05-05 18:35 | 21.45237 | -81.35043 | 30387 ft | 506 kts | 131° |
| 2026-05-05 18:35 | 21.42898 | -81.32262 | 30657 ft | 505 kts | 131° |
| 2026-05-05 18:35 | 21.40544 | -81.29462 | 30909 ft | 505 kts | 131° |
| 2026-05-05 18:35 | 21.38189 | -81.26658 | 31162 ft | 505 kts | 131° |
| 2026-05-05 18:36 | 21.35834 | -81.23851 | 31415 ft | 505 kts | 131° |
| 2026-05-05 18:36 | 21.33487 | -81.21055 | 31680 ft | 504 kts | 131° |
| 2026-05-05 18:36 | 21.31166 | -81.18297 | 31938 ft | 504 kts | 131° |
| 2026-05-05 18:36 | 21.28803 | -81.15492 | 32205 ft | 504 kts | 131° |
| 2026-05-05 18:37 | 21.26472 | -81.12724 | 32472 ft | 504 kts | 130° |
| 2026-05-05 18:37 | 21.24115 | -81.09921 | 32752 ft | 503 kts | 130° |
| 2026-05-05 18:37 | 21.21771 | -81.07135 | 32980 ft | 503 kts | 130° |
| 2026-05-05 18:37 | 21.19423 | -81.04346 | 33045 ft | 502 kts | 130° |
| 2026-05-05 18:38 | 21.14752 | -80.98819 | 33046 ft | 501 kts | 130° |
| 2026-05-05 18:38 | 21.10075 | -80.93287 | 33046 ft | 500 kts | 130° |
| 2026-05-05 18:39 | 21.05431 | -80.87781 | 33044 ft | 500 kts | 130° |
| 2026-05-05 18:39 | 21.00798 | -80.82253 | 33046 ft | 500 kts | 130° |
| 2026-05-05 18:40 | 20.96175 | -80.76718 | 33042 ft | 500 kts | 130° |
| 2026-05-05 18:40 | 20.91516 | -80.71173 | 33037 ft | 499 kts | 130° |
| 2026-05-05 18:41 | 20.86889 | -80.65680 | 33039 ft | 499 kts | 130° |
| 2026-05-05 18:41 | 20.82219 | -80.60134 | 33037 ft | 499 kts | 130° |
| 2026-05-05 18:42 | 20.77597 | -80.54640 | 33036 ft | 499 kts | 130° |
| 2026-05-05 18:42 | 20.72936 | -80.49109 | 33040 ft | 499 kts | 130° |
| 2026-05-05 18:43 | 20.68306 | -80.43617 | 33046 ft | 499 kts | 130° |
| 2026-05-05 18:43 | 20.63648 | -80.38111 | 33049 ft | 499 kts | 130° |
| 2026-05-05 18:44 | 20.58992 | -80.32599 | 33048 ft | 498 kts | 130° |
| 2026-05-05 18:44 | 20.54369 | -80.27125 | 33049 ft | 498 kts | 130° |
| 2026-05-05 18:45 | 20.49714 | -80.21630 | 33044 ft | 498 kts | 130° |
| 2026-05-05 18:45 | 20.45068 | -80.16196 | 33044 ft | 498 kts | 130° |
| 2026-05-05 18:46 | 20.40374 | -80.10729 | 33049 ft | 498 kts | 131° |
| 2026-05-05 18:46 | 20.35716 | -80.05314 | 33048 ft | 497 kts | 130° |
| 2026-05-05 18:47 | 20.31020 | -79.99845 | 33051 ft | 497 kts | 130° |
| 2026-05-05 18:47 | 20.26368 | -79.94424 | 33054 ft | 497 kts | 130° |
| 2026-05-05 18:48 | 20.21704 | -79.88997 | 33056 ft | 497 kts | 130° |
| 2026-05-05 18:48 | 20.17026 | -79.83563 | 33054 ft | 497 kts | 130° |
| 2026-05-05 18:49 | 20.12361 | -79.78152 | 33046 ft | 497 kts | 130° |
| 2026-05-05 18:49 | 20.07677 | -79.72715 | 33045 ft | 496 kts | 130° |
| 2026-05-05 18:50 | 20.03030 | -79.67328 | 33044 ft | 496 kts | 131° |
| 2026-05-05 18:50 | 19.98343 | -79.61911 | 33041 ft | 496 kts | 130° |
| 2026-05-05 18:51 | 19.93705 | -79.56519 | 33040 ft | 495 kts | 130° |
| 2026-05-05 18:51 | 19.89048 | -79.51091 | 33039 ft | 495 kts | 130° |
| 2026-05-05 18:52 | 19.84418 | -79.45719 | 33035 ft | 494 kts | 130° |
| 2026-05-05 18:52 | 19.79757 | -79.40329 | 33036 ft | 494 kts | 131° |
| 2026-05-05 18:53 | 19.75107 | -79.34977 | 33035 ft | 494 kts | 131° |
| 2026-05-05 18:53 | 19.70432 | -79.29603 | 33035 ft | 494 kts | 131° |
| 2026-05-05 18:54 | 19.65797 | -79.24266 | 33028 ft | 493 kts | 131° |
| 2026-05-05 18:54 | 19.61145 | -79.18899 | 33022 ft | 493 kts | 130° |
| 2026-05-05 18:55 | 19.56484 | -79.13543 | 33028 ft | 493 kts | 131° |
| 2026-05-05 18:55 | 19.51835 | -79.08217 | 33027 ft | 493 kts | 131° |
| 2026-05-05 18:56 | 19.47200 | -79.02898 | 33031 ft | 493 kts | 131° |
| 2026-05-05 18:56 | 19.42536 | -78.97552 | 33031 ft | 492 kts | 131° |
| 2026-05-05 18:57 | 19.37912 | -78.92247 | 33033 ft | 492 kts | 130° |
| 2026-05-05 18:57 | 19.33267 | -78.86906 | 33030 ft | 492 kts | 130° |
| 2026-05-05 18:58 | 19.28617 | -78.81576 | 33031 ft | 492 kts | 131° |
| 2026-05-05 18:58 | 19.23986 | -78.76280 | 33027 ft | 491 kts | 130° |
| 2026-05-05 18:59 | 19.19326 | -78.70962 | 33023 ft | 491 kts | 131° |
| 2026-05-05 18:59 | 19.14697 | -78.65672 | 33022 ft | 491 kts | 130° |
| 2026-05-05 19:00 | 19.10046 | -78.60347 | 33022 ft | 491 kts | 131° |
| 2026-05-05 19:00 | 19.05412 | -78.55070 | 33018 ft | 491 kts | 131° |
| 2026-05-05 19:01 | 19.00766 | -78.49790 | 33021 ft | 491 kts | 131° |
| 2026-05-05 19:01 | 18.96112 | -78.44489 | 33019 ft | 491 kts | 131° |
| 2026-05-05 19:02 | 18.91481 | -78.39219 | 33020 ft | 491 kts | 131° |
| 2026-05-05 19:02 | 18.86818 | -78.33922 | 33016 ft | 491 kts | 131° |
| 2026-05-05 19:03 | 18.82176 | -78.28668 | 32956 ft | 492 kts | 131° |
| 2026-05-05 19:03 | 18.79833 | -78.26016 | 32070 ft | 496 kts | 131° |
| 2026-05-05 19:03 | 18.77443 | -78.23308 | 30805 ft | 506 kts | 131° |
| 2026-05-05 19:04 | 18.75023 | -78.20561 | 29502 ft | 513 kts | 131° |
| 2026-05-05 19:04 | 18.72627 | -78.17845 | 28763 ft | 506 kts | 131° |
| 2026-05-05 19:04 | 18.70241 | -78.15151 | 28020 ft | 499 kts | 131° |
| 2026-05-05 19:04 | 18.67872 | -78.12478 | 27270 ft | 494 kts | 132° |
| 2026-05-05 19:05 | 18.65537 | -78.09840 | 26534 ft | 489 kts | 132° |
| 2026-05-05 19:05 | 18.63219 | -78.07218 | 25815 ft | 484 kts | 132° |
| 2026-05-05 19:05 | 18.60961 | -78.04664 | 25113 ft | 479 kts | 132° |
| 2026-05-05 19:05 | 18.58688 | -78.02095 | 24408 ft | 475 kts | 132° |
| 2026-05-05 19:06 | 18.56431 | -77.99543 | 23717 ft | 472 kts | 132° |
| 2026-05-05 19:06 | 18.54226 | -77.97060 | 23069 ft | 465 kts | 133° |
| 2026-05-05 19:06 | 18.52011 | -77.94573 | 22394 ft | 460 kts | 133° |
| 2026-05-05 19:06 | 18.50023 | -77.92004 | 21746 ft | 454 kts | 123° |
| 2026-05-05 19:07 | 18.48487 | -77.89128 | 21201 ft | 447 kts | 116° |
| 2026-05-05 19:07 | 18.47066 | -77.86222 | 20652 ft | 442 kts | 116° |
| 2026-05-05 19:07 | 18.45651 | -77.83360 | 20123 ft | 437 kts | 117° |
| 2026-05-05 19:07 | 18.44246 | -77.80534 | 19589 ft | 433 kts | 117° |
| 2026-05-05 19:08 | 18.42870 | -77.77761 | 19060 ft | 429 kts | 117° |
| 2026-05-05 19:08 | 18.41486 | -77.74974 | 18531 ft | 427 kts | 117° |
| 2026-05-05 19:08 | 18.40111 | -77.72200 | 17929 ft | 425 kts | 117° |
| 2026-05-05 19:08 | 18.38761 | -77.69481 | 17378 ft | 421 kts | 117° |
| 2026-05-05 19:09 | 18.37408 | -77.66755 | 16816 ft | 417 kts | 118° |
| 2026-05-05 19:09 | 18.36064 | -77.64043 | 16245 ft | 415 kts | 118° |
| 2026-05-05 19:09 | 18.34751 | -77.61388 | 15697 ft | 412 kts | 118° |
| 2026-05-05 19:09 | 18.33427 | -77.58712 | 15155 ft | 409 kts | 118° |
| 2026-05-05 19:10 | 18.32104 | -77.56049 | 14582 ft | 407 kts | 119° |
| 2026-05-05 19:10 | 18.30816 | -77.53458 | 14033 ft | 404 kts | 119° |
| 2026-05-05 19:10 | 18.29518 | -77.50844 | 13616 ft | 398 kts | 119° |
| 2026-05-05 19:10 | 18.28242 | -77.48269 | 13023 ft | 395 kts | 118° |
| 2026-05-05 19:11 | 18.26987 | -77.45736 | 12462 ft | 391 kts | 118° |
| 2026-05-05 19:11 | 18.25735 | -77.43212 | 11893 ft | 386 kts | 118° |
| 2026-05-05 19:11 | 18.24492 | -77.40711 | 11342 ft | 383 kts | 118° |
| 2026-05-05 19:11 | 18.23265 | -77.38250 | 11002 ft | 373 kts | 118° |
| 2026-05-05 19:12 | 18.22095 | -77.35900 | 10890 ft | 358 kts | 118° |
| 2026-05-05 19:12 | 18.20965 | -77.33624 | 10764 ft | 342 kts | 118° |
| 2026-05-05 19:12 | 18.19891 | -77.31459 | 10648 ft | 329 kts | 118° |
| 2026-05-05 19:12 | 18.18845 | -77.29361 | 10528 ft | 317 kts | 118° |
| 2026-05-05 19:13 | 18.17835 | -77.27339 | 10407 ft | 307 kts | 118° |
| 2026-05-05 19:13 | 18.16848 | -77.25367 | 10179 ft | 302 kts | 118° |
| 2026-05-05 19:13 | 18.15891 | -77.23453 | 10024 ft | 296 kts | 118° |
| 2026-05-05 19:13 | 18.14930 | -77.21532 | 10017 ft | 295 kts | 118° |
| 2026-05-05 19:14 | 18.13972 | -77.19616 | 10014 ft | 295 kts | 118° |
| 2026-05-05 19:14 | 18.13028 | -77.17728 | 10019 ft | 295 kts | 119° |
| 2026-05-05 19:14 | 18.11911 | -77.15931 | 10014 ft | 293 kts | 132° |
| 2026-05-05 19:14 | 18.10524 | -77.14360 | 10012 ft | 292 kts | 134° |
| 2026-05-05 19:15 | 18.09134 | -77.12793 | 10013 ft | 292 kts | 134° |
| 2026-05-05 19:15 | 18.07807 | -77.11199 | 10008 ft | 293 kts | 126° |
| 2026-05-05 19:15 | 18.06847 | -77.09298 | 10009 ft | 294 kts | 116° |
| 2026-05-05 19:15 | 18.06002 | -77.07340 | 10008 ft | 293 kts | 116° |
| 2026-05-05 19:16 | 18.05183 | -77.05454 | 10003 ft | 279 kts | 116° |
| 2026-05-05 19:16 | 18.04395 | -77.03643 | 10004 ft | 264 kts | 116° |
| 2026-05-05 19:16 | 18.03651 | -77.01946 | 10005 ft | 252 kts | 116° |
| 2026-05-05 19:16 | 18.02926 | -77.00297 | 10002 ft | 247 kts | 116° |
| 2026-05-05 19:17 | 18.02206 | -76.98660 | 10005 ft | 246 kts | 117° |
| 2026-05-05 19:17 | 18.01485 | -76.97025 | 10003 ft | 246 kts | 117° |
| 2026-05-05 19:17 | 18.00776 | -76.95413 | 10003 ft | 245 kts | 116° |
| 2026-05-05 19:17 | 18.00058 | -76.93777 | 10000 ft | 246 kts | 116° |
| 2026-05-05 19:18 | 17.99582 | -76.92694 | 10001 ft | 245 kts | 117° |
| 2026-05-05 19:18 | 17.98866 | -76.91061 | 9997 ft | 245 kts | 117° |
| 2026-05-05 19:18 | 17.97920 | -76.88904 | 10000 ft | 245 kts | 116° |
| 2026-05-05 19:18 | 17.97441 | -76.87804 | 10002 ft | 245 kts | 117° |
| 2026-05-05 19:19 | 17.96741 | -76.86188 | 9998 ft | 246 kts | 116° |
| 2026-05-05 19:19 | 17.96032 | -76.84551 | 9996 ft | 245 kts | 116° |
| 2026-05-05 19:19 | 17.95324 | -76.82916 | 10000 ft | 245 kts | 116° |
| 2026-05-05 19:19 | 17.94614 | -76.81278 | 10001 ft | 246 kts | 116° |
| 2026-05-05 19:20 | 17.93904 | -76.79638 | 10009 ft | 246 kts | 116° |
| 2026-05-05 19:20 | 17.93011 | -76.78153 | 9990 ft | 241 kts | 142° |
| 2026-05-05 19:20 | 17.91498 | -76.77499 | 10000 ft | 239 kts | 180° |
| 2026-05-05 19:20 | 17.89929 | -76.77999 | 9998 ft | 241 kts | 218° |
| 2026-05-05 19:21 | 17.88999 | -76.79444 | 10002 ft | 246 kts | 256° |
| 2026-05-05 19:21 | 17.89121 | -76.81228 | 10004 ft | 252 kts | 291° |
| 2026-05-05 19:21 | 17.89842 | -76.82918 | 9996 ft | 253 kts | 284° |
| 2026-05-05 19:21 | 17.89835 | -76.84711 | 10000 ft | 247 kts | 246° |
| 2026-05-05 19:22 | 17.88821 | -76.86071 | 10007 ft | 241 kts | 208° |
| 2026-05-05 19:22 | 17.87225 | -76.86495 | 10004 ft | 240 kts | 179° |
| 2026-05-05 19:22 | 17.85571 | -76.86602 | 9994 ft | 242 kts | 196° |
| 2026-05-05 19:22 | 17.84093 | -76.87514 | 10004 ft | 254 kts | 225° |
| 2026-05-05 19:23 | 17.83215 | -76.89131 | 10004 ft | 260 kts | 255° |
| 2026-05-05 19:23 | 17.83199 | -76.91010 | 10000 ft | 264 kts | 284° |
| 2026-05-05 19:23 | 17.83974 | -76.92773 | 10004 ft | 268 kts | 300° |
| 2026-05-05 19:23 | 17.84962 | -76.94433 | 10004 ft | 269 kts | 301° |
| 2026-05-05 19:24 | 17.85977 | -76.96078 | 10001 ft | 268 kts | 301° |
| 2026-05-05 19:24 | 17.86997 | -76.97723 | 10001 ft | 268 kts | 301° |
| 2026-05-05 19:24 | 17.88022 | -76.99368 | 9927 ft | 267 kts | 302° |
| 2026-05-05 19:24 | 17.89027 | -77.00977 | 9621 ft | 267 kts | 302° |
| 2026-05-05 19:25 | 17.90036 | -77.02606 | 9276 ft | 266 kts | 302° |
| 2026-05-05 19:25 | 17.91034 | -77.04242 | 8967 ft | 264 kts | 302° |
| 2026-05-05 19:25 | 17.92022 | -77.05880 | 8691 ft | 263 kts | 302° |
| 2026-05-05 19:25 | 17.92981 | -77.07492 | 8395 ft | 262 kts | 302° |
| 2026-05-05 19:26 | 17.93937 | -77.09122 | 8098 ft | 261 kts | 302° |
| 2026-05-05 19:26 | 17.94932 | -77.10708 | 7812 ft | 258 kts | 313° |
| 2026-05-05 19:26 | 17.96339 | -77.11839 | 7491 ft | 254 kts | 337° |
| 2026-05-05 19:26 | 17.98053 | -77.12255 | 6953 ft | 260 kts | 2° |
| 2026-05-05 19:27 | 17.99826 | -77.11829 | 6425 ft | 266 kts | 29° |
| 2026-05-05 19:27 | 18.01241 | -77.10635 | 5877 ft | 258 kts | 54° |
| 2026-05-05 19:27 | 18.02201 | -77.09088 | 5393 ft | 248 kts | 58° |
| 2026-05-05 19:27 | 18.03069 | -77.07580 | 4918 ft | 242 kts | 65° |
| 2026-05-05 19:28 | 18.03628 | -77.05933 | 4392 ft | 237 kts | 79° |
| 2026-05-05 19:28 | 18.03816 | -77.04250 | 4059 ft | 224 kts | 91° |
| 2026-05-05 19:28 | 18.03725 | -77.02639 | 4011 ft | 212 kts | 96° |
| 2026-05-05 19:28 | 18.03307 | -77.01209 | 4014 ft | 203 kts | 118° |
| 2026-05-05 19:29 | 18.02664 | -76.99905 | 3914 ft | 202 kts | 114° |
| 2026-05-05 19:29 | 18.02090 | -76.98623 | 3686 ft | 188 kts | 114° |
| 2026-05-05 19:29 | 18.01557 | -76.97399 | 3440 ft | 181 kts | 114° |
| 2026-05-05 19:29 | 18.01042 | -76.96213 | 3213 ft | 174 kts | 114° |
| 2026-05-05 19:30 | 18.00549 | -76.95075 | 2999 ft | 168 kts | 114° |
| 2026-05-05 19:30 | 18.00068 | -76.93968 | 2787 ft | 164 kts | 114° |
| 2026-05-05 19:30 | 17.99600 | -76.92896 | 2613 ft | 157 kts | 116° |
| 2026-05-05 19:30 | 17.99165 | -76.91893 | 2411 ft | 152 kts | 116° |
| 2026-05-05 19:31 | 17.98740 | -76.90911 | 2176 ft | 143 kts | 115° |
| 2026-05-05 19:31 | 17.98335 | -76.89972 | 1987 ft | 139 kts | 116° |
| 2026-05-05 19:31 | 17.97880 | -76.89085 | 1741 ft | 137 kts | 122° |
| 2026-05-05 19:31 | 17.97345 | -76.88231 | 1526 ft | 139 kts | 124° |
| 2026-05-05 19:32 | 17.96844 | -76.87350 | 1383 ft | 139 kts | 117° |
| 2026-05-05 19:32 | 17.96485 | -76.86444 | 1138 ft | 132 kts | 112° |
| 2026-05-05 19:32 | 17.96168 | -76.85541 | 962 ft | 129 kts | 110° |
| 2026-05-05 19:32 | 17.95858 | -76.84676 | 790 ft | 127 kts | 117° |
| 2026-05-05 19:33 | 17.95516 | -76.83840 | 664 ft | 124 kts | 115° |
| 2026-05-05 19:33 | 17.95160 | -76.82988 | 494 ft | 135 kts | 114° |
| 2026-05-05 19:33 | 17.94825 | -76.82046 | 426 ft | 139 kts | 112° |
| 2026-05-05 19:33 | 17.94471 | -76.81093 | 318 ft | 138 kts | 115° |
| 2026-05-05 19:34 | 17.94116 | -76.80178 | 107 ft | 130 kts | 115° |
| 2026-05-05 19:34 | 17.93796 | -76.79368 | 15 ft | 105 kts | 112° |
| 2026-05-05 19:34 | 17.93593 | -76.78825 | 14 ft | 55 kts | 112° |
| 2026-05-05 19:35 | 17.93466 | -76.78493 | 13 ft | 17 kts | 111° |
| 2026-05-05 19:35 | 17.93423 | -76.78376 | 15 ft | 17 kts | 111° |
| 2026-05-05 19:35 | 17.93400 | -76.78276 | 18 ft | 15 kts | 98° |
| 2026-05-05 19:35 | 17.93405 | -76.78151 | 15 ft | 20 kts | 81° |
| 2026-05-05 19:36 | 17.93427 | -76.77994 | 14 ft | 17 kts | 81° |
| 2026-05-05 19:36 | 17.93483 | -76.77939 | 14 ft | 13 kts | 22° |
| 2026-05-05 19:36 | 17.93566 | -76.77905 | 14 ft | 4 kts | 17° |
| 2026-05-05 19:36 | 17.93593 | -76.77933 | 14 ft | 8 kts | 293° |
| 2026-05-05 19:37 | 17.93604 | -76.77958 | 14 ft | 0 kts | 292° |